createdAt,value
2018-02-03T00:00:02.071Z,1.70
2018-02-03T00:01:06.684Z,1.70
2018-02-03T00:02:10.893Z,1.70
2018-02-03T00:03:15.909Z,1.60
2018-02-03T00:04:20.838Z,1.60
2018-02-03T00:05:25.793Z,1.60
2018-02-03T00:06:30.414Z,1.50
2018-02-03T00:07:34.823Z,1.50
2018-02-03T00:08:39.202Z,1.50
2018-02-03T00:09:44.218Z,1.40
2018-02-03T00:10:48.425Z,1.40
2018-02-03T00:11:52.607Z,1.40
2018-02-03T00:12:56.886Z,1.40
2018-02-03T00:14:01.154Z,1.40
2018-02-03T00:15:05.792Z,1.30
2018-02-03T00:16:10.109Z,1.40
2018-02-03T00:17:14.317Z,1.30
2018-02-03T00:18:18.523Z,1.30
2018-02-03T00:19:23.539Z,1.30
2018-02-03T00:20:27.763Z,1.30
2018-02-03T00:21:32.230Z,1.30
2018-02-03T00:22:36.552Z,1.20
2018-02-03T00:23:40.825Z,1.30
2018-02-03T00:24:45.912Z,1.30
2018-02-03T00:25:50.104Z,1.20
2018-02-03T00:26:54.286Z,1.30
2018-02-03T00:27:59.399Z,1.30
2018-02-03T00:29:04.652Z,1.30
2018-02-03T00:30:10.083Z,1.30
2018-02-03T00:31:14.272Z,1.30
2018-02-03T00:32:18.455Z,1.40
2018-02-03T00:33:22.619Z,1.40
2018-02-03T00:34:27.550Z,1.40
2018-02-03T00:35:31.841Z,1.40
2018-02-03T00:36:36.736Z,1.40
2018-02-03T00:37:41.436Z,1.40
2018-02-03T00:38:45.644Z,1.50
2018-02-03T00:39:49.876Z,1.50
2018-02-03T00:40:54.074Z,1.50
2018-02-03T00:41:58.294Z,1.50
2018-02-03T00:43:03.283Z,1.50
2018-02-03T00:44:07.584Z,1.60
2018-02-03T00:45:12.147Z,1.60
2018-02-03T00:46:16.343Z,1.60
2018-02-03T00:47:20.555Z,1.60
2018-02-03T00:48:24.752Z,1.70
2018-02-03T00:49:28.956Z,1.70
2018-02-03T00:50:34.415Z,1.70
2018-02-03T00:51:38.664Z,1.70
2018-02-03T00:52:42.927Z,1.70
2018-02-03T00:53:47.879Z,1.70
2018-02-03T00:54:52.103Z,1.70
2018-02-03T00:55:56.278Z,1.70
2018-02-03T00:57:00.606Z,1.80
2018-02-03T00:58:05.324Z,1.80
2018-02-03T00:59:09.572Z,1.80
2018-02-03T01:00:14.172Z,1.80
2018-02-03T01:01:18.347Z,1.80
2018-02-03T01:02:23.288Z,1.80
2018-02-03T01:03:27.468Z,1.80
2018-02-03T01:04:32.541Z,1.80
2018-02-03T01:05:36.879Z,1.80
2018-02-03T01:06:41.554Z,1.80
2018-02-03T01:07:45.766Z,1.80
2018-02-03T01:08:49.943Z,1.80
2018-02-03T01:09:54.120Z,1.80
2018-02-03T01:10:58.376Z,1.80
2018-02-03T01:12:02.954Z,1.80
2018-02-03T01:13:07.388Z,1.80
2018-02-03T01:14:11.638Z,1.80
2018-02-03T01:15:15.860Z,1.80
2018-02-03T01:16:20.099Z,1.80
2018-02-03T01:17:24.295Z,1.80
2018-02-03T01:18:28.546Z,1.80
2018-02-03T01:19:33.700Z,1.80
2018-02-03T01:20:38.039Z,1.80
2018-02-03T01:21:42.363Z,1.80
2018-02-03T01:22:46.551Z,1.80
2018-02-03T01:23:51.505Z,1.80
2018-02-03T01:24:55.678Z,1.80
2018-02-03T01:26:00.675Z,1.80
2018-02-03T01:27:05.771Z,1.80
2018-02-03T01:28:10.070Z,1.80
2018-02-03T01:29:14.316Z,1.90
2018-02-03T01:30:18.506Z,1.80
2018-02-03T01:31:22.735Z,1.80
2018-02-03T01:32:26.974Z,1.80
2018-02-03T01:33:31.852Z,1.90
2018-02-03T01:34:36.373Z,1.80
2018-02-03T01:35:40.610Z,1.80
2018-02-03T01:36:44.944Z,1.90
2018-02-03T01:37:49.219Z,1.90
2018-02-03T01:38:53.478Z,1.90
2018-02-03T01:39:57.656Z,1.90
2018-02-03T01:41:02.046Z,1.90
2018-02-03T01:42:06.674Z,1.80
2018-02-03T01:43:11.488Z,1.90
2018-02-03T01:44:16.660Z,1.90
2018-02-03T01:45:20.876Z,1.90
2018-02-03T01:46:25.048Z,1.90
2018-02-03T01:47:47.141Z,2.00
2018-02-03T01:48:51.311Z,1.90
2018-02-03T01:49:55.840Z,1.90
2018-02-03T01:51:00.317Z,1.90
2018-02-03T01:52:04.988Z,1.90
2018-02-03T01:53:09.427Z,1.90
2018-02-03T01:54:13.657Z,1.90
2018-02-03T01:55:17.874Z,1.90
2018-02-03T01:56:22.191Z,1.90
2018-02-03T01:57:26.400Z,1.90
2018-02-03T01:58:31.327Z,1.90
2018-02-03T01:59:35.685Z,1.90
2018-02-03T02:00:40.419Z,1.90
2018-02-03T02:01:44.653Z,1.90
2018-02-03T02:02:49.627Z,1.90
2018-02-03T02:03:53.846Z,1.90
2018-02-03T02:04:58.034Z,1.90
2018-02-03T02:06:02.570Z,2.00
2018-02-03T02:07:07.633Z,1.90
2018-02-03T02:08:13.204Z,1.90
2018-02-03T02:09:17.407Z,1.90
2018-02-03T02:10:22.389Z,1.90
2018-02-03T02:11:26.579Z,1.90
2018-02-03T02:12:30.973Z,1.90
2018-02-03T02:13:35.550Z,1.90
2018-02-03T02:14:40.122Z,1.90
2018-02-03T02:15:44.419Z,1.90
2018-02-03T02:16:49.370Z,1.90
2018-02-03T02:17:53.599Z,1.90
2018-02-03T02:18:57.783Z,1.90
2018-02-03T02:20:02.521Z,1.90
2018-02-03T02:21:07.336Z,1.90
2018-02-03T02:22:12.007Z,1.90
2018-02-03T02:23:16.223Z,1.90
2018-02-03T02:24:20.410Z,2.00
2018-02-03T02:25:24.687Z,2.00
2018-02-03T02:26:28.880Z,2.00
2018-02-03T02:27:33.947Z,1.90
2018-02-03T02:28:38.204Z,1.90
2018-02-03T02:29:42.477Z,2.00
2018-02-03T02:30:46.767Z,2.00
2018-02-03T02:31:50.968Z,2.00
2018-02-03T02:32:55.162Z,2.00
2018-02-03T02:34:00.253Z,1.90
2018-02-03T02:35:05.446Z,1.90
2018-02-03T02:36:09.728Z,1.90
2018-02-03T02:37:13.978Z,1.90
2018-02-03T02:38:18.208Z,1.90
2018-02-03T02:39:22.402Z,1.90
2018-02-03T02:40:26.595Z,1.90
2018-02-03T02:41:31.196Z,1.90
2018-02-03T02:42:35.492Z,1.90
2018-02-03T02:43:40.548Z,1.90
2018-02-03T02:44:44.765Z,1.90
2018-02-03T02:45:49.761Z,1.90
2018-02-03T02:46:53.948Z,1.90
2018-02-03T02:47:58.163Z,1.90
2018-02-03T02:49:03.658Z,1.90
2018-02-03T02:50:08.059Z,1.90
2018-02-03T02:51:13.130Z,2.00
2018-02-03T02:52:17.403Z,1.90
2018-02-03T02:53:22.371Z,1.90
2018-02-03T02:54:26.661Z,1.90
2018-02-03T02:55:32.092Z,1.90
2018-02-03T02:56:36.619Z,1.90
2018-02-03T02:57:41.307Z,1.90
2018-02-03T02:58:46.307Z,1.90
2018-02-03T02:59:50.507Z,1.90
2018-02-03T03:00:55.434Z,1.90
2018-02-03T03:01:59.658Z,1.90
2018-02-03T03:03:05.683Z,1.90
2018-02-03T03:04:10.363Z,1.90
2018-02-03T03:05:15.748Z,1.90
2018-02-03T03:06:19.937Z,1.90
2018-02-03T03:07:25.004Z,1.90
2018-02-03T03:08:29.201Z,1.90
2018-02-03T03:09:34.108Z,1.80
2018-02-03T03:10:38.466Z,1.80
2018-02-03T03:11:42.732Z,1.90
2018-02-03T03:12:46.962Z,1.80
2018-02-03T03:13:51.180Z,1.80
2018-02-03T03:14:55.350Z,1.80
2018-02-03T03:16:00.616Z,1.90
2018-02-03T03:17:04.976Z,1.80
2018-02-03T03:18:09.315Z,1.90
2018-02-03T03:19:14.367Z,1.90
2018-02-03T03:20:18.912Z,1.90
2018-02-03T03:21:23.140Z,1.90
2018-02-03T03:22:27.320Z,1.90
2018-02-03T03:23:31.647Z,1.90
2018-02-03T03:24:36.320Z,1.90
2018-02-03T03:25:41.058Z,1.90
2018-02-03T03:26:45.239Z,2.00
2018-02-03T03:27:49.407Z,2.00
2018-02-03T03:28:53.574Z,2.00
2018-02-03T03:29:58.534Z,1.90
2018-02-03T03:31:03.265Z,1.90
2018-02-03T03:32:07.679Z,1.90
2018-02-03T03:33:12.845Z,1.90
2018-02-03T03:34:17.034Z,1.90
2018-02-03T03:35:21.232Z,1.80
2018-02-03T03:36:25.435Z,1.90
2018-02-03T03:37:29.635Z,1.80
2018-02-03T03:38:35.380Z,1.80
2018-02-03T03:39:40.148Z,1.80
2018-02-03T03:40:44.703Z,1.80
2018-02-03T03:41:49.652Z,1.80
2018-02-03T03:42:53.847Z,1.80
2018-02-03T03:43:58.790Z,1.80
2018-02-03T03:45:03.749Z,1.80
2018-02-03T03:46:08.180Z,1.80
2018-02-03T03:47:13.807Z,1.80
2018-02-03T03:48:17.993Z,1.70
2018-02-03T03:49:22.186Z,1.80
2018-02-03T03:50:26.382Z,1.80
2018-02-03T03:51:31.054Z,1.80
2018-02-03T03:52:35.669Z,1.70
2018-02-03T03:53:40.187Z,1.70
2018-02-03T03:54:44.447Z,1.70
2018-02-03T03:55:48.632Z,1.70
2018-02-03T03:56:53.050Z,1.70
2018-02-03T03:57:57.333Z,1.70
2018-02-03T03:59:02.304Z,1.80
2018-02-03T04:00:06.696Z,1.70
2018-02-03T04:01:10.982Z,1.70
2018-02-03T04:02:15.607Z,1.70
2018-02-03T04:03:19.832Z,1.70
2018-02-03T04:04:24.124Z,1.70
2018-02-03T04:05:28.340Z,1.70
2018-02-03T04:06:32.789Z,1.80
2018-02-03T04:07:37.277Z,1.80
2018-02-03T04:08:41.553Z,1.80
2018-02-03T04:09:45.787Z,1.70
2018-02-03T04:10:49.978Z,1.80
2018-02-03T04:11:54.175Z,1.80
2018-02-03T04:12:59.227Z,1.80
2018-02-03T04:14:03.641Z,1.80
2018-02-03T04:15:07.916Z,1.80
2018-02-03T04:16:13.037Z,1.80
2018-02-03T04:17:17.230Z,1.80
2018-02-03T04:18:21.485Z,1.80
2018-02-03T04:19:25.656Z,1.80
2018-02-03T04:20:29.828Z,1.80
2018-02-03T04:21:34.088Z,1.80
2018-02-03T04:22:38.417Z,1.80
2018-02-03T04:23:42.996Z,1.80
2018-02-03T04:24:47.214Z,1.80
2018-02-03T04:25:51.420Z,1.80
2018-02-03T04:26:55.598Z,1.80
2018-02-03T04:28:00.832Z,1.80
2018-02-03T04:29:05.858Z,1.80
2018-02-03T04:30:10.973Z,1.80
2018-02-03T04:31:15.948Z,1.80
2018-02-03T04:32:20.176Z,1.80
2018-02-03T04:33:24.383Z,1.80
2018-02-03T04:34:28.669Z,1.80
2018-02-03T04:35:33.695Z,1.80
2018-02-03T04:36:37.930Z,1.80
2018-02-03T04:37:42.731Z,1.90
2018-02-03T04:38:46.941Z,1.80
2018-02-03T04:39:51.224Z,1.90
2018-02-03T04:40:56.200Z,1.90
2018-02-03T04:42:00.393Z,1.90
2018-02-03T04:43:05.572Z,1.90
2018-02-03T04:44:09.834Z,1.90
2018-02-03T04:45:14.961Z,2.00
2018-02-03T04:46:19.951Z,2.00
2018-02-03T04:47:24.150Z,2.00
2018-02-03T04:48:28.370Z,2.00
2018-02-03T04:49:33.192Z,2.00
2018-02-03T04:50:38.299Z,2.00
2018-02-03T04:51:42.508Z,2.00
2018-02-03T04:52:46.702Z,2.00
2018-02-03T04:53:50.908Z,2.10
2018-02-03T04:54:55.105Z,2.00
2018-02-03T04:56:01.309Z,2.10
2018-02-03T04:57:06.100Z,2.00
2018-02-03T04:58:10.613Z,2.00
2018-02-03T04:59:14.815Z,2.00
2018-02-03T05:00:19.803Z,2.00
2018-02-03T05:01:24.387Z,1.90
2018-02-03T05:02:28.648Z,2.00
2018-02-03T05:03:33.145Z,1.90
2018-02-03T05:04:37.418Z,1.90
2018-02-03T05:05:42.098Z,1.90
2018-02-03T05:06:46.382Z,1.90
2018-02-03T05:07:50.636Z,1.90
2018-02-03T05:08:54.836Z,1.90
2018-02-03T05:09:59.068Z,1.90
2018-02-03T05:11:03.933Z,1.90
2018-02-03T05:12:08.298Z,1.90
2018-02-03T05:13:13.451Z,1.80
2018-02-03T05:14:17.651Z,1.80
2018-02-03T05:15:22.643Z,1.80
2018-02-03T05:16:26.941Z,1.80
2018-02-03T05:17:32.765Z,1.80
2018-02-03T05:18:37.270Z,1.80
2018-02-03T05:19:41.676Z,1.80
2018-02-03T05:20:46.622Z,1.70
2018-02-03T05:21:50.820Z,1.70
2018-02-03T05:22:55.888Z,1.70
2018-02-03T05:24:00.061Z,1.70
2018-02-03T05:25:05.514Z,1.60
2018-02-03T05:26:09.962Z,1.60
2018-02-03T05:27:14.990Z,1.50
2018-02-03T05:28:19.286Z,1.50
2018-02-03T05:29:23.492Z,1.50
2018-02-03T05:30:27.667Z,1.50
2018-02-03T05:31:33.985Z,1.40
2018-02-03T05:32:39.684Z,1.40
2018-02-03T05:33:44.110Z,1.40
2018-02-03T05:34:48.293Z,1.40
2018-02-03T05:35:53.240Z,1.40
2018-02-03T05:36:58.207Z,1.40
2018-02-03T05:38:02.997Z,1.40
2018-02-03T05:39:08.447Z,1.30
2018-02-03T05:40:12.724Z,1.30
2018-02-03T05:41:16.955Z,1.30
2018-02-03T05:42:21.941Z,1.30
2018-02-03T05:43:26.167Z,1.30
2018-02-03T05:44:32.199Z,1.30
2018-02-03T05:45:36.823Z,1.30
2018-02-03T05:46:41.117Z,1.20
2018-02-03T05:47:45.502Z,1.20
2018-02-03T05:48:49.721Z,1.20
2018-02-03T05:49:53.929Z,1.20
2018-02-03T05:50:58.144Z,1.20
2018-02-03T05:52:02.598Z,1.20
2018-02-03T05:53:07.195Z,1.20
2018-02-03T05:54:11.552Z,1.20
2018-02-03T05:55:15.731Z,1.10
2018-02-03T05:56:19.927Z,1.10
2018-02-03T05:57:24.132Z,1.10
2018-02-03T05:58:28.366Z,1.10
2018-02-03T05:59:32.839Z,1.10
2018-02-03T06:00:37.327Z,1.10
2018-02-03T06:01:42.377Z,1.10
2018-02-03T06:02:47.346Z,1.00
2018-02-03T06:03:51.546Z,1.00
2018-02-03T06:04:55.737Z,1.00
2018-02-03T06:05:59.989Z,1.10
2018-02-03T06:07:04.944Z,1.10
2018-02-03T06:08:10.010Z,1.10
2018-02-03T06:09:14.241Z,1.10
2018-02-03T06:10:18.448Z,1.10
2018-02-03T06:11:23.056Z,1.00
2018-02-03T06:12:27.294Z,1.10
2018-02-03T06:13:31.818Z,1.10
2018-02-03T06:14:36.360Z,1.10
2018-02-03T06:15:41.023Z,1.10
2018-02-03T06:16:46.240Z,1.10
2018-02-03T06:17:51.193Z,1.20
2018-02-03T06:18:55.414Z,1.10
2018-02-03T06:19:59.598Z,1.10
2018-02-03T06:21:05.256Z,1.10
2018-02-03T06:22:10.180Z,1.10
2018-02-03T06:23:14.498Z,1.10
2018-02-03T06:24:18.688Z,1.10
2018-02-03T06:25:23.655Z,1.10
2018-02-03T06:26:27.878Z,1.10
2018-02-03T06:27:32.550Z,1.20
2018-02-03T06:28:37.340Z,1.10
2018-02-03T06:29:41.800Z,1.10
2018-02-03T06:30:45.995Z,1.20
2018-02-03T06:31:50.972Z,1.10
2018-02-03T06:32:55.190Z,1.10
2018-02-03T06:33:59.388Z,1.10
2018-02-03T06:35:03.825Z,1.10
2018-02-03T06:36:09.180Z,1.10
2018-02-03T06:37:13.917Z,1.10
2018-02-03T06:38:18.936Z,1.10
2018-02-03T06:39:23.128Z,1.10
2018-02-03T06:40:27.303Z,1.10
2018-02-03T06:41:31.710Z,1.20
2018-02-03T06:42:36.418Z,1.20
2018-02-03T06:43:41.518Z,1.10
2018-02-03T06:44:45.734Z,1.10
2018-02-03T06:45:49.958Z,1.10
2018-02-03T06:46:54.909Z,1.10
2018-02-03T06:47:59.110Z,1.10
2018-02-03T06:49:04.387Z,1.10
2018-02-03T06:50:08.631Z,1.10
2018-02-03T06:51:12.854Z,1.00
2018-02-03T06:52:17.814Z,1.00
2018-02-03T06:53:21.994Z,1.00
2018-02-03T06:54:26.936Z,1.10
2018-02-03T06:55:31.342Z,1.00
2018-02-03T06:56:35.611Z,1.10
2018-02-03T06:57:39.901Z,1.10
2018-02-03T06:58:44.111Z,1.10
2018-02-03T06:59:48.324Z,1.10
2018-02-03T07:00:52.732Z,1.10
2018-02-03T07:01:57.019Z,1.10
2018-02-03T07:03:02.073Z,1.10
2018-02-03T07:04:06.470Z,1.10
2018-02-03T07:05:10.698Z,1.10
2018-02-03T07:06:14.864Z,1.10
2018-02-03T07:07:19.116Z,1.10
2018-02-03T07:08:23.310Z,1.10
2018-02-03T07:09:28.285Z,1.10
2018-02-03T07:10:33.530Z,1.10
2018-02-03T07:11:38.023Z,1.10
2018-02-03T07:12:42.630Z,1.10
2018-02-03T07:13:46.828Z,1.10
2018-02-03T07:14:51.823Z,1.10
2018-02-03T07:15:56.031Z,1.10
2018-02-03T07:17:02.684Z,1.10
2018-02-03T07:18:06.942Z,1.10
2018-02-03T07:19:12.204Z,1.10
2018-02-03T07:20:16.475Z,1.10
2018-02-03T07:21:20.688Z,1.10
2018-02-03T07:22:25.300Z,1.10
2018-02-03T07:23:29.502Z,1.10
2018-02-03T07:24:33.898Z,1.10
2018-02-03T07:25:38.141Z,1.10
2018-02-03T07:26:42.595Z,1.10
2018-02-03T07:27:47.624Z,1.10
2018-02-03T07:28:52.603Z,1.10
2018-02-03T07:29:56.830Z,1.10
2018-02-03T07:31:01.207Z,1.20
2018-02-03T07:32:05.753Z,1.20
2018-02-03T07:33:10.424Z,1.20
2018-02-03T07:34:14.624Z,1.20
2018-02-03T07:35:18.834Z,1.30
2018-02-03T07:36:23.805Z,1.30
2018-02-03T07:37:27.977Z,1.30
2018-02-03T07:38:33.866Z,1.40
2018-02-03T07:39:38.215Z,1.40
2018-02-03T07:40:43.286Z,1.50
2018-02-03T07:41:47.597Z,1.50
2018-02-03T07:42:53.358Z,1.60
2018-02-03T07:43:58.000Z,1.60
2018-02-03T07:45:02.297Z,1.60
2018-02-03T07:46:06.684Z,1.60
2018-02-03T07:47:11.759Z,1.60
2018-02-03T07:48:15.999Z,1.50
2018-02-03T07:49:20.232Z,1.50
2018-02-03T07:50:25.191Z,1.60
2018-02-03T07:51:29.372Z,1.50
2018-02-03T07:52:34.488Z,1.60
2018-02-03T07:53:39.982Z,1.60
2018-02-03T07:54:44.200Z,1.60
2018-02-03T07:55:48.390Z,1.60
2018-02-03T07:56:52.612Z,1.70
2018-02-03T07:57:56.819Z,1.70
2018-02-03T07:59:01.640Z,1.80
2018-02-03T08:00:05.894Z,1.80
2018-02-03T08:01:10.170Z,1.80
2018-02-03T08:02:14.404Z,1.80
2018-02-03T08:03:18.609Z,1.80
2018-02-03T08:04:22.841Z,1.80
2018-02-03T08:05:27.051Z,1.80
2018-02-03T08:06:31.380Z,1.70
2018-02-03T08:07:35.849Z,1.70
2018-02-03T08:08:40.074Z,1.70
2018-02-03T08:09:44.325Z,1.70
2018-02-03T08:10:48.504Z,1.70
2018-02-03T08:11:52.714Z,1.70
2018-02-03T08:12:56.900Z,1.70
2018-02-03T08:14:01.125Z,1.70
2018-02-03T08:15:05.343Z,1.70
2018-02-03T08:16:09.688Z,1.70
2018-02-03T08:17:15.407Z,1.70
2018-02-03T08:18:19.614Z,1.80
2018-02-03T08:19:24.236Z,1.80
2018-02-03T08:20:28.471Z,1.70
2018-02-03T08:21:32.711Z,1.80
2018-02-03T08:22:37.437Z,1.80
2018-02-03T08:23:41.648Z,1.80
2018-02-03T08:24:46.668Z,1.80
2018-02-03T08:25:51.632Z,1.90
2018-02-03T08:26:56.014Z,1.90
2018-02-03T08:28:01.011Z,1.90
2018-02-03T08:29:06.506Z,1.90
2018-02-03T08:30:10.746Z,1.90
2018-02-03T08:31:14.971Z,2.00
2018-02-03T08:32:19.165Z,2.00
2018-02-03T08:33:23.352Z,2.00
2018-02-03T08:34:27.551Z,2.10
2018-02-03T08:35:32.268Z,2.10
2018-02-03T08:36:36.655Z,2.10
2018-02-03T08:37:40.940Z,2.20
2018-02-03T08:38:45.188Z,2.20
2018-02-03T08:39:50.558Z,2.30
2018-02-03T08:40:54.731Z,2.30
2018-02-03T08:41:58.954Z,2.30
2018-02-03T08:43:04.305Z,2.40
2018-02-03T08:44:08.700Z,2.40
2018-02-03T08:45:13.968Z,2.50
2018-02-03T08:46:18.157Z,2.40
2018-02-03T08:47:23.160Z,2.40
2018-02-03T08:48:27.364Z,2.40
2018-02-03T08:49:31.577Z,2.50
2018-02-03T08:50:35.900Z,2.40
2018-02-03T08:51:40.263Z,2.40
2018-02-03T08:52:44.517Z,2.50
2018-02-03T08:53:49.480Z,2.40
2018-02-03T08:54:53.724Z,2.40
2018-02-03T08:55:57.924Z,2.30
2018-02-03T08:57:02.391Z,2.30
2018-02-03T08:58:06.663Z,2.30
2018-02-03T08:59:10.858Z,2.30
2018-02-03T09:00:15.060Z,2.30
2018-02-03T09:01:19.263Z,2.30
2018-02-03T09:02:24.211Z,2.30
2018-02-03T09:03:28.486Z,2.30
2018-02-03T09:04:32.721Z,2.30
2018-02-03T09:05:36.916Z,2.30
2018-02-03T09:06:42.061Z,2.40
2018-02-03T09:07:46.363Z,2.30
2018-02-03T09:08:50.594Z,2.30
2018-02-03T09:09:54.804Z,2.40
2018-02-03T09:10:59.021Z,2.40
2018-02-03T09:12:06.899Z,2.30
2018-02-03T09:13:11.118Z,2.30
2018-02-03T09:14:15.432Z,2.30
2018-02-03T09:15:21.230Z,2.30
2018-02-03T09:16:25.432Z,2.30
2018-02-03T09:17:29.651Z,2.30
2018-02-03T09:18:33.842Z,2.30
2018-02-03T09:19:38.083Z,2.30
2018-02-03T09:20:42.659Z,2.20
2018-02-03T09:21:47.065Z,2.20
2018-02-03T09:22:51.964Z,2.30
2018-02-03T09:23:56.201Z,2.30
2018-02-03T09:25:00.824Z,2.30
2018-02-03T09:26:05.023Z,2.30
2018-02-03T09:27:09.199Z,2.30
2018-02-03T09:28:13.495Z,2.30
2018-02-03T09:29:18.521Z,2.30
2018-02-03T09:30:22.797Z,2.30
2018-02-03T09:31:27.007Z,2.40
2018-02-03T09:32:31.211Z,2.40
2018-02-03T09:33:35.409Z,2.40
2018-02-03T09:34:39.580Z,2.50
2018-02-03T09:35:43.885Z,2.50
2018-02-03T09:36:48.237Z,2.60
2018-02-03T09:37:52.628Z,2.60
2018-02-03T09:38:56.875Z,2.60
2018-02-03T09:40:01.086Z,2.70
2018-02-03T09:41:05.611Z,2.70
2018-02-03T09:42:09.840Z,2.70
2018-02-03T09:43:14.668Z,2.80
2018-02-03T09:44:19.144Z,2.80
2018-02-03T09:45:24.247Z,2.90
2018-02-03T09:46:28.517Z,2.90
2018-02-03T09:47:32.712Z,3.00
2018-02-03T09:48:36.975Z,3.10
2018-02-03T09:49:41.188Z,3.20
2018-02-03T09:50:46.769Z,3.20
2018-02-03T09:51:51.099Z,3.20
2018-02-03T09:52:55.371Z,3.20
2018-02-03T09:53:59.578Z,3.30
2018-02-03T09:55:03.775Z,3.30
2018-02-03T09:56:07.985Z,3.30
2018-02-03T09:57:12.610Z,3.20
2018-02-03T09:58:17.727Z,3.20
2018-02-03T09:59:22.509Z,3.20
2018-02-03T10:00:27.786Z,3.20
2018-02-03T10:01:32.010Z,3.20
2018-02-03T10:02:36.259Z,3.20
2018-02-03T10:03:40.491Z,3.20
2018-02-03T10:04:46.135Z,3.20
2018-02-03T10:05:50.861Z,3.20
2018-02-03T10:06:55.120Z,3.20
2018-02-03T10:07:59.373Z,3.20
2018-02-03T10:09:03.595Z,3.10
2018-02-03T10:10:07.793Z,3.10
2018-02-03T10:11:12.721Z,3.10
2018-02-03T10:12:17.074Z,3.10
2018-02-03T10:13:21.287Z,3.10
2018-02-03T10:14:25.463Z,3.10
2018-02-03T10:15:29.670Z,3.10
2018-02-03T10:16:33.891Z,3.10
2018-02-03T10:17:38.140Z,3.10
2018-02-03T10:18:42.506Z,3.20
2018-02-03T10:19:46.760Z,3.20
2018-02-03T10:20:51.024Z,3.20
2018-02-03T10:21:55.339Z,3.30
2018-02-03T10:22:59.565Z,3.30
2018-02-03T10:24:03.869Z,3.40
2018-02-03T10:25:08.056Z,3.40
2018-02-03T10:26:13.249Z,3.50
2018-02-03T10:27:17.994Z,3.50
2018-02-03T10:28:22.257Z,3.50
2018-02-03T10:29:26.565Z,3.50
2018-02-03T10:30:30.775Z,3.50
2018-02-03T10:31:35.028Z,3.50
2018-02-03T10:32:39.265Z,3.50
2018-02-03T10:33:44.683Z,3.50
2018-02-03T10:34:49.306Z,3.60
2018-02-03T10:35:54.488Z,3.60
2018-02-03T10:36:58.682Z,3.60
2018-02-03T10:38:03.643Z,3.70
2018-02-03T10:39:07.904Z,3.60
2018-02-03T10:40:13.690Z,3.70
2018-02-03T10:41:18.833Z,3.70
2018-02-03T10:42:23.206Z,3.70
2018-02-03T10:43:27.415Z,3.70
2018-02-03T10:44:32.450Z,3.70
2018-02-03T10:45:37.463Z,3.70
2018-02-03T10:46:41.714Z,3.70
2018-02-03T10:47:46.369Z,3.70
2018-02-03T10:48:51.569Z,3.70
2018-02-03T10:49:55.828Z,3.70
2018-02-03T10:51:00.012Z,3.70
2018-02-03T10:52:04.216Z,3.80
2018-02-03T10:53:08.427Z,3.80
2018-02-03T10:54:13.741Z,3.80
2018-02-03T10:55:18.276Z,3.90
2018-02-03T10:56:22.628Z,3.80
2018-02-03T10:57:26.830Z,3.90
2018-02-03T10:58:31.112Z,3.80
2018-02-03T10:59:35.267Z,3.90
2018-02-03T11:00:45.265Z,3.90
2018-02-03T11:01:49.552Z,3.80
2018-02-03T11:02:54.520Z,3.80
2018-02-03T11:03:58.702Z,3.80
2018-02-03T11:05:02.888Z,3.90
2018-02-03T11:06:10.062Z,3.80
2018-02-03T11:07:14.331Z,3.80
2018-02-03T11:08:18.576Z,3.80
2018-02-03T11:09:22.873Z,3.80
2018-02-03T11:10:27.076Z,3.80
2018-02-03T11:11:31.327Z,3.80
2018-02-03T11:12:35.532Z,3.80
2018-02-03T11:13:39.707Z,3.80
2018-02-03T11:14:43.928Z,3.80
2018-02-03T11:15:48.139Z,3.90
2018-02-03T11:16:52.402Z,3.90
2018-02-03T11:17:56.627Z,3.90
2018-02-03T11:19:00.821Z,3.90
2018-02-03T11:20:05.774Z,3.90
2018-02-03T11:21:10.005Z,4.00
2018-02-03T11:22:14.279Z,4.00
2018-02-03T11:23:19.323Z,4.00
2018-02-03T11:24:23.506Z,4.00
2018-02-03T11:25:27.748Z,4.00
2018-02-03T11:26:31.974Z,4.10
2018-02-03T11:27:36.157Z,4.10
2018-02-03T11:28:40.370Z,4.10
2018-02-03T11:29:44.650Z,4.10
2018-02-03T11:30:49.635Z,4.20
2018-02-03T11:31:53.919Z,4.20
2018-02-03T11:32:58.090Z,4.20
2018-02-03T11:34:02.282Z,4.20
2018-02-03T11:35:06.454Z,4.20
2018-02-03T11:36:10.661Z,4.20
2018-02-03T11:37:14.939Z,4.30
2018-02-03T11:38:19.168Z,4.30
2018-02-03T11:39:24.135Z,4.30
2018-02-03T11:40:28.358Z,4.30
2018-02-03T11:41:32.569Z,4.30
2018-02-03T11:42:36.792Z,4.30
2018-02-03T11:43:40.998Z,4.30
2018-02-03T11:44:45.443Z,4.30
2018-02-03T11:45:49.887Z,4.30
2018-02-03T11:46:54.145Z,4.40
2018-02-03T11:47:58.387Z,4.30
2018-02-03T11:49:03.339Z,4.50
2018-02-03T11:50:07.546Z,4.50
2018-02-03T11:51:11.786Z,4.60
2018-02-03T11:52:16.276Z,4.70
2018-02-03T11:53:20.503Z,4.80
2018-02-03T11:54:24.670Z,4.70
2018-02-03T11:55:29.612Z,4.60
2018-02-03T11:56:34.565Z,4.60
2018-02-03T11:57:38.736Z,4.60
2018-02-03T11:58:43.802Z,4.50
2018-02-03T11:59:48.152Z,4.50
2018-02-03T12:00:52.418Z,4.50
2018-02-03T12:01:56.619Z,4.50
2018-02-03T12:03:01.567Z,4.60
2018-02-03T12:04:05.820Z,4.50
2018-02-03T12:05:10.044Z,4.50
2018-02-03T12:06:14.341Z,4.40
2018-02-03T12:07:19.042Z,4.40
2018-02-03T12:08:23.638Z,4.40
2018-02-03T12:09:27.901Z,4.40
2018-02-03T12:10:33.078Z,4.40
2018-02-03T12:11:37.259Z,4.40
2018-02-03T12:12:41.576Z,4.40
2018-02-03T12:13:46.427Z,4.30
2018-02-03T12:14:50.739Z,4.30
2018-02-03T12:15:54.919Z,4.30
2018-02-03T12:16:59.899Z,4.30
2018-02-03T12:18:04.087Z,4.30
2018-02-03T12:19:08.359Z,4.40
2018-02-03T12:20:13.405Z,4.40
2018-02-03T12:21:17.945Z,4.40
2018-02-03T12:22:22.263Z,4.40
2018-02-03T12:23:27.203Z,4.40
2018-02-03T12:24:31.462Z,4.40
2018-02-03T12:25:35.722Z,4.40
2018-02-03T12:26:39.950Z,4.50
2018-02-03T12:27:45.633Z,4.50
2018-02-03T12:28:50.884Z,4.60
2018-02-03T12:29:55.139Z,4.60
2018-02-03T12:30:59.399Z,4.60
2018-02-03T12:32:04.374Z,4.60
2018-02-03T12:33:08.552Z,4.60
2018-02-03T12:34:14.113Z,4.50
2018-02-03T12:35:19.210Z,4.50
2018-02-03T12:36:24.953Z,4.50
2018-02-03T12:37:29.936Z,4.50
2018-02-03T12:38:34.145Z,4.50
2018-02-03T12:39:38.312Z,4.50
2018-02-03T12:40:43.345Z,4.50
2018-02-03T12:41:47.985Z,4.50
2018-02-03T12:42:52.268Z,4.50
2018-02-03T12:43:57.361Z,4.50
2018-02-03T12:45:01.582Z,4.50
2018-02-03T12:46:05.835Z,4.50
2018-02-03T12:47:11.010Z,4.60
2018-02-03T12:48:15.534Z,4.50
2018-02-03T12:49:21.420Z,4.60
2018-02-03T12:50:25.619Z,4.60
2018-02-03T12:51:29.843Z,4.50
2018-02-03T12:52:34.073Z,4.50
2018-02-03T12:53:39.065Z,4.50
2018-02-03T12:54:43.838Z,4.50
2018-02-03T12:55:48.162Z,4.50
2018-02-03T12:56:52.801Z,4.50
2018-02-03T12:57:57.024Z,4.50
2018-02-03T12:59:01.225Z,4.50
2018-02-03T13:00:05.464Z,4.60
2018-02-03T13:01:09.689Z,4.60
2018-02-03T13:02:14.094Z,4.60
2018-02-03T13:03:18.386Z,4.60
2018-02-03T13:04:24.100Z,4.70
2018-02-03T13:05:28.319Z,4.70
2018-02-03T13:06:32.495Z,4.70
2018-02-03T13:07:37.963Z,4.80
2018-02-03T13:08:42.262Z,4.80
2018-02-03T13:09:46.631Z,4.90
2018-02-03T13:10:52.384Z,4.80
2018-02-03T13:11:56.833Z,4.90
2018-02-03T13:13:02.652Z,4.90
2018-02-03T13:14:06.875Z,4.90
2018-02-03T13:15:11.893Z,4.90
2018-02-03T13:16:17.157Z,4.90
2018-02-03T13:17:21.399Z,4.90
2018-02-03T13:18:25.649Z,4.90
2018-02-03T13:19:29.847Z,4.80
2018-02-03T13:20:34.052Z,4.80
2018-02-03T13:21:38.255Z,4.70
2018-02-03T13:22:42.714Z,4.70
2018-02-03T13:23:47.157Z,4.60
2018-02-03T13:24:51.664Z,4.70
2018-02-03T13:25:55.873Z,4.60
2018-02-03T13:27:00.824Z,4.60
2018-02-03T13:28:05.025Z,4.60
2018-02-03T13:29:09.533Z,4.70
2018-02-03T13:30:14.629Z,4.70
2018-02-03T13:31:19.775Z,4.70
2018-02-03T13:32:24.850Z,4.60
2018-02-03T13:33:29.049Z,4.70
2018-02-03T13:34:33.296Z,4.70
2018-02-03T13:35:37.579Z,4.60
2018-02-03T13:36:41.796Z,4.60
2018-02-03T13:37:46.591Z,4.60
2018-02-03T13:38:51.998Z,4.60
2018-02-03T13:39:56.242Z,4.60
2018-02-03T13:41:01.179Z,4.60
2018-02-03T13:42:05.352Z,4.60
2018-02-03T13:43:09.560Z,4.70
2018-02-03T13:44:14.928Z,4.70
2018-02-03T13:45:19.251Z,4.60
2018-02-03T13:46:23.534Z,4.60
2018-02-03T13:47:28.572Z,4.60
2018-02-03T13:48:33.516Z,4.70
2018-02-03T13:49:38.483Z,4.70
2018-02-03T13:50:43.076Z,4.70
2018-02-03T13:51:47.400Z,4.60
2018-02-03T13:52:51.723Z,4.60
2018-02-03T13:53:55.966Z,4.60
2018-02-03T13:55:00.174Z,4.60
2018-02-03T13:56:04.392Z,4.60
2018-02-03T13:57:08.596Z,4.60
2018-02-03T13:58:13.068Z,4.50
2018-02-03T13:59:17.417Z,4.50
2018-02-03T14:00:21.774Z,4.60
2018-02-03T14:01:25.990Z,4.60
2018-02-03T14:02:30.211Z,4.60
2018-02-03T14:03:34.407Z,4.70
2018-02-03T14:04:39.375Z,4.80
2018-02-03T14:05:43.607Z,4.80
2018-02-03T14:06:48.232Z,4.70
2018-02-03T14:07:53.607Z,4.70
2018-02-03T14:08:58.608Z,4.70
2018-02-03T14:10:04.364Z,4.70
2018-02-03T14:11:08.567Z,4.70
2018-02-03T14:12:13.188Z,4.70
2018-02-03T14:13:18.680Z,4.80
2018-02-03T14:14:23.077Z,4.80
2018-02-03T14:15:27.264Z,4.70
2018-02-03T14:16:31.464Z,4.50
2018-02-03T14:17:35.792Z,4.30
2018-02-03T14:18:41.300Z,3.90